Time;durP1;ratioP1;P1;durP2;ratioP2;P2;SDS_P1;SDS_P2;PMS_P1;PMS_P2;Temp;Humidity;BMP_temperature;BMP_pressure;BME280_temperature;BME280_humidity;BME280_pressure;Samples;Min_cycle;Max_cycle;Signal;HPM_P1;HPM_P2
2023/04/26 00:01:59;;;;;;;5.05;4.53;;;;;;;8.48;100.00;99717.69;5412873;32;34680;-87
2023/04/26 00:05:02;;;;;;;6.40;4.82;;;;;;;8.49;100.00;99716.69;5401017;33;34138;-87
2023/04/26 00:08:05;;;;;;;7.05;4.70;;;;;;;8.48;100.00;99725.75;5400556;33;33669;-87
2023/04/26 00:11:08;;;;;;;6.10;4.70;;;;;;;8.57;100.00;99724.66;5400299;33;33808;-87
2023/04/26 00:14:12;;;;;;;6.18;4.95;;;;;;;8.60;100.00;99725.16;5388042;33;34963;-87
2023/04/26 00:17:15;;;;;;;5.87;4.55;;;;;;;8.56;100.00;99723.00;5389249;33;33797;-87
2023/04/26 00:20:18;;;;;;;5.95;4.43;;;;;;;8.54;100.00;99730.38;5394655;33;34012;-87
2023/04/26 00:23:21;;;;;;;5.68;4.30;;;;;;;8.51;100.00;99728.06;5410650;33;34090;-87
2023/04/26 00:26:24;;;;;;;6.22;4.53;;;;;;;8.55;100.00;99732.06;5403256;33;33912;-87
2023/04/26 00:29:27;;;;;;;8.50;4.60;;;;;;;8.53;100.00;99747.50;5403607;33;33886;-87
2023/04/26 00:32:30;;;;;;;10.63;4.82;;;;;;;8.56;100.00;99742.59;5402618;33;34015;-87
2023/04/26 00:35:33;;;;;;;6.87;4.70;;;;;;;8.58;100.00;99753.16;5388225;33;33664;-87
2023/04/26 00:38:41;;;;;;;6.45;4.68;;;;;;;8.48;100.00;99752.56;5388705;33;33751;-87
2023/04/26 00:41:44;;;;;;;6.75;4.97;;;;;;;8.51;100.00;99752.19;5375801;33;33958;-87
2023/04/26 00:44:48;;;;;;;7.28;4.75;;;;;;;8.46;100.00;99752.75;5400129;33;33742;-87
2023/04/26 00:47:52;;;;;;;6.85;4.97;;;;;;;8.38;100.00;99750.97;5376182;33;33735;-87
2023/04/26 00:50:55;;;;;;;6.10;4.80;;;;;;;8.36;100.00;99762.84;5401181;33;34446;-87
2023/04/26 00:53:58;;;;;;;7.20;4.80;;;;;;;8.22;100.00;99756.44;5401005;33;34081;-89
2023/04/26 00:57:01;;;;;;;7.70;4.95;;;;;;;8.12;100.00;99759.31;5400504;33;34062;-91
2023/04/26 01:00:05;;;;;;;5.85;4.60;;;;;;;8.10;100.00;99757.81;5400302;33;35189;-90
2023/04/26 01:03:08;;;;;;;5.80;4.78;;;;;;;8.04;100.00;99767.41;5400112;33;36054;-88
2023/04/26 01:06:11;;;;;;;6.68;4.90;;;;;;;7.99;100.00;99766.28;5400641;33;33765;-88
2023/04/26 01:09:14;;;;;;;7.60;4.72;;;;;;;7.90;100.00;99758.28;5400106;33;35099;-87
2023/04/26 01:12:18;;;;;;;6.90;4.87;;;;;;;7.84;100.00;99775.06;5399621;33;34806;-87
2023/04/26 01:15:21;;;;;;;5.32;4.47;;;;;;;7.79;100.00;99768.56;5399841;33;34528;-87
2023/04/26 01:18:24;;;;;;;8.93;5.43;;;;;;;7.79;100.00;99776.59;5401284;33;34053;-87
2023/04/26 01:21:27;;;;;;;6.22;4.82;;;;;;;7.78;100.00;99778.47;5387557;33;33885;-87
2023/04/26 01:24:33;;;;;;;7.55;4.70;;;;;;;7.71;100.00;99772.94;5399584;33;33812;-87
2023/04/26 01:27:38;;;;;;;7.03;5.10;;;;;;;7.68;100.00;99784.00;5399909;33;33748;-87
2023/04/26 01:30:42;;;;;;;9.23;5.25;;;;;;;7.68;100.00;99785.84;5387268;33;33820;-87
2023/04/26 01:33:45;;;;;;;7.30;4.55;;;;;;;7.70;100.00;99789.19;5399235;33;33866;-87
2023/04/26 01:36:47;;;;;;;8.10;4.70;;;;;;;7.70;100.00;99786.53;5387536;33;33783;-87
2023/04/26 01:39:50;;;;;;;4.85;4.32;;;;;;;7.63;100.00;99777.50;5400515;33;33509;-87
2023/04/26 01:42:55;;;;;;;8.85;4.78;;;;;;;7.58;100.00;99791.41;5399034;33;34411;-87
2023/04/26 01:45:57;;;;;;;5.55;4.70;;;;;;;7.57;100.00;99794.25;5386357;33;33666;-87
2023/04/26 01:49:03;;;;;;;5.47;4.35;;;;;;;7.52;100.00;99799.28;5399505;33;34040;-87
2023/04/26 01:52:07;;;;;;;6.12;4.65;;;;;;;7.47;100.00;99795.31;5399251;33;34433;-87
2023/04/26 01:55:10;;;;;;;5.90;4.37;;;;;;;7.58;100.00;99802.13;5398273;33;33448;-87
2023/04/26 01:58:12;;;;;;;5.60;4.53;;;;;;;7.58;100.00;99804.81;5398335;33;34248;-87
2023/04/26 02:01:16;;;;;;;6.65;4.75;;;;;;;7.52;100.00;99805.50;5398375;33;33813;-87
2023/04/26 02:04:19;;;;;;;5.28;4.18;;;;;;;7.57;100.00;99807.66;5373843;33;33961;-87
2023/04/26 02:07:22;;;;;;;5.87;4.40;;;;;;;7.53;100.00;99800.97;5399362;33;34262;-87
2023/04/26 02:10:29;;;;;;;5.75;4.50;;;;;;;7.49;100.00;99806.69;5386354;33;33709;-87
2023/04/26 02:13:31;;;;;;;5.50;4.37;;;;;;;7.44;100.00;99800.16;5398496;33;33933;-87
2023/04/26 02:16:35;;;;;;;6.57;4.55;;;;;;;7.42;100.00;99816.41;5399091;33;33479;-87
2023/04/26 02:19:38;;;;;;;5.55;4.22;;;;;;;7.49;100.00;99814.72;5386617;33;33699;-87
2023/04/26 02:22:41;;;;;;;5.75;4.00;;;;;;;7.47;100.00;99814.03;5396236;33;33670;-87
2023/04/26 02:25:47;;;;;;;7.65;4.60;;;;;;;7.45;100.00;99807.19;5390763;33;34788;-87
2023/04/26 02:28:51;;;;;;;6.70;3.75;;;;;;;7.40;100.00;99815.75;5399387;33;34328;-87
2023/04/26 02:31:54;;;;;;;6.32;4.53;;;;;;;7.40;100.00;99813.06;5386284;33;34198;-87
2023/04/26 02:34:57;;;;;;;5.18;4.10;;;;;;;7.39;100.00;99824.78;5394254;33;34951;-87
2023/04/26 02:38:00;;;;;;;5.18;4.30;;;;;;;7.31;100.00;99823.94;5400221;33;34756;-87
2023/04/26 02:41:03;;;;;;;5.45;4.37;;;;;;;7.32;100.00;99818.44;5401274;33;35056;-87
2023/04/26 02:44:07;;;;;;;6.97;4.10;;;;;;;7.33;100.00;99819.28;5402171;33;33790;-87
2023/04/26 02:47:10;;;;;;;5.15;4.18;;;;;;;7.30;100.00;99816.94;5376994;33;33770;-87
2023/04/26 02:50:13;;;;;;;6.25;4.12;;;;;;;7.30;100.00;99812.41;5401338;33;33894;-87
2023/04/26 02:53:16;;;;;;;6.47;4.32;;;;;;;7.27;100.00;99828.81;5401046;33;33804;-87
2023/04/26 02:56:19;;;;;;;5.12;3.70;;;;;;;7.20;100.00;99825.16;5388946;33;34153;-87
2023/04/26 02:59:23;;;;;;;5.20;4.00;;;;;;;7.21;100.00;99829.50;5401056;33;33821;-87
2023/04/26 03:02:26;;;;;;;4.90;3.62;;;;;;;7.26;100.00;99840.53;5402203;33;34795;-87
2023/04/26 03:05:31;;;;;;;6.97;3.92;;;;;;;7.27;100.00;99851.06;5389042;33;35169;-89
2023/04/26 03:08:36;;;;;;;5.87;3.53;;;;;;;7.24;100.00;99851.41;5388731;33;35199;-90
2023/04/26 03:11:39;;;;;;;5.30;3.83;;;;;;;7.17;100.00;99854.94;5401072;33;34122;-91
2023/04/26 03:14:42;;;;;;;5.30;3.70;;;;;;;7.08;100.00;99863.97;5388576;33;33736;-88
2023/04/26 03:17:45;;;;;;;5.95;4.07;;;;;;;7.12;100.00;99863.47;5400743;33;33736;-88
2023/04/26 03:20:48;;;;;;;5.12;3.72;;;;;;;7.12;100.00;99866.16;5388691;33;34857;-88
2023/04/26 03:23:51;;;;;;;6.75;3.78;;;;;;;7.08;100.00;99874.66;5400141;33;34515;-87
2023/04/26 03:26:54;;;;;;;4.20;3.58;;;;;;;7.17;100.00;99877.19;5389022;33;33730;-87
2023/04/26 03:29:57;;;;;;;6.03;3.65;;;;;;;7.09;100.00;99887.06;5412797;32;33721;-87
2023/04/26 03:33:01;;;;;;;6.95;3.42;;;;;;;7.12;100.00;99884.06;5413217;32;33726;-87
2023/04/26 03:36:05;;;;;;;5.20;3.60;;;;;;;7.01;100.00;99887.91;5402524;33;34953;-87
2023/04/26 03:39:08;;;;;;;3.70;3.25;;;;;;;6.99;100.00;99890.75;5403781;33;35224;-88
2023/04/26 03:42:12;;;;;;;5.65;3.70;;;;;;;6.94;100.00;99894.94;5402324;33;34994;-87
2023/04/26 03:45:15;;;;;;;6.32;3.60;;;;;;;6.92;100.00;99896.94;5401707;33;33864;-87
2023/04/26 03:48:18;;;;;;;4.35;3.87;;;;;;;6.87;100.00;99894.72;5412582;32;33445;-87
2023/04/26 04:03:36;;;;;;;7.30;3.97;;;;;;;6.78;100.00;99909.94;6105100;27;20831;-87
2023/04/26 04:06:43;;;;;;;3.75;3.40;;;;;;;6.69;100.00;99918.97;5437614;32;33282;-87
2023/04/26 04:09:46;;;;;;;5.47;3.62;;;;;;;6.74;100.00;99923.81;5438131;32;33856;-87
2023/04/26 04:12:50;;;;;;;6.97;3.95;;;;;;;6.81;100.00;99920.34;5415660;32;34185;-87
2023/04/26 04:15:53;;;;;;;5.28;3.78;;;;;;;6.86;100.00;99929.69;5437748;32;33486;-87
2023/04/26 04:18:56;;;;;;;4.80;3.67;;;;;;;6.89;100.00;99932.87;5426139;32;34986;-87
2023/04/26 04:21:59;;;;;;;7.37;3.67;;;;;;;7.00;100.00;99929.06;5457758;27;33790;-87
2023/04/26 04:25:04;;;;;;;6.53;3.67;;;;;;;7.26;100.00;99929.72;5400669;33;35288;-88
2023/04/26 04:28:07;;;;;;;4.72;3.60;;;;;;;7.36;100.00;99913.50;5400262;32;34328;-88
2023/04/26 04:31:11;;;;;;;5.50;3.60;;;;;;;7.40;100.00;99908.63;5379189;33;33955;-88
2023/04/26 04:34:15;;;;;;;8.05;4.22;;;;;;;7.49;99.24;99934.41;5394535;33;33271;-88
2023/04/26 04:37:18;;;;;;;4.18;3.65;;;;;;;7.72;99.26;99937.22;5413093;32;34790;-88
2023/04/26 04:40:23;;;;;;;3.60;3.30;;;;;;;7.84;95.99;99941.22;5366504;33;33896;-88
2023/04/26 04:43:26;;;;;;;7.90;3.90;;;;;;;7.99;93.63;99949.41;5404904;33;33978;-88
2023/04/26 04:46:29;;;;;;;6.82;3.78;;;;;;;8.05;94.44;99953.25;5392752;33;33676;-88
2023/04/26 04:49:32;;;;;;;9.07;3.58;;;;;;;8.02;92.77;99959.78;5405527;33;33648;-88
2023/04/26 04:52:35;;;;;;;5.28;3.67;;;;;;;8.11;91.72;99965.97;5367325;33;34552;-88
2023/04/26 04:55:38;;;;;;;7.45;3.42;;;;;;;8.06;92.20;99971.00;5379517;33;34305;-88
2023/04/26 04:58:42;;;;;;;10.00;4.32;;;;;;;8.10;92.70;99973.16;5391694;33;33796;-88
2023/04/26 05:01:45;;;;;;;6.55;4.37;;;;;;;8.03;93.74;99974.84;5379652;33;33458;-88
2023/04/26 05:04:48;;;;;;;7.70;4.50;;;;;;;8.07;94.67;99988.72;5392345;32;34056;-88
2023/04/26 05:07:52;;;;;;;6.15;4.53;;;;;;;8.01;95.77;99994.78;5392427;33;34015;-88
2023/04/26 05:10:55;;;;;;;10.77;5.12;;;;;;;8.05;95.59;99991.59;5406431;33;34245;-88
2023/04/26 05:13:58;;;;;;;7.97;4.65;;;;;;;8.18;96.58;99996.41;5381358;33;33998;-88
2023/04/26 05:17:01;;;;;;;8.57;5.07;;;;;;;8.14;95.70;99995.09;5392677;33;33879;-88
2023/04/26 05:20:06;;;;;;;5.70;4.60;;;;;;;8.21;95.93;99993.41;5392188;33;34295;-88
2023/04/26 05:23:10;;;;;;;8.57;5.05;;;;;;;8.37;94.74;99992.53;5399069;33;33642;-88
2023/04/26 05:26:15;;;;;;;8.35;4.50;;;;;;;8.45;94.28;99987.13;5392164;32;35302;-88
2023/04/26 05:29:23;;;;;;;;;;;;;;;8.54;93.22;99993.31;5393500;33;32803;-88
2023/04/26 05:32:27;;;;;;;8.10;4.47;;;;;;;8.61;90.58;99999.66;5405049;32;34615;-88
2023/04/26 05:35:29;;;;;;;8.05;4.80;;;;;;;8.77;88.99;99991.53;5431494;27;35311;-91
2023/04/26 05:38:36;;;;;;;9.60;4.47;;;;;;;8.85;87.98;99996.03;5440806;32;35129;-90
2023/04/26 05:41:39;;;;;;;6.62;4.53;;;;;;;8.92;85.35;100009.56;5441098;32;33794;-88
2023/04/26 05:44:43;;;;;;;8.70;4.80;;;;;;;8.95;87.09;99998.47;5428444;32;33890;-88
2023/04/26 05:47:47;;;;;;;6.80;4.43;;;;;;;8.99;84.74;100014.06;5427713;32;33928;-88
2023/04/26 05:50:51;;;;;;;6.28;3.80;;;;;;;9.06;82.82;100011.50;5427466;32;33832;-88
2023/04/26 05:53:54;;;;;;;5.45;3.80;;;;;;;9.24;83.39;100008.53;5427115;32;34455;-87
2023/04/26 05:56:57;;;;;;;5.85;4.30;;;;;;;9.31;81.92;100014.88;5415251;32;33861;-88
2023/04/26 06:00:04;;;;;;;8.45;4.22;;;;;;;9.45;80.68;100013.28;5427963;27;33943;-87
2023/04/26 06:03:45;;;;;;;12.35;3.87;;;;;;;9.48;79.95;100016.44;5419878;32;33724;-87
2023/04/26 06:06:50;;;;;;;4.75;3.83;;;;;;;9.55;76.63;100027.28;5422043;32;34584;-87
2023/04/26 06:09:55;;;;;;;5.05;3.80;;;;;;;9.55;75.64;100027.28;5418456;32;34179;-88
2023/04/26 06:12:58;;;;;;;5.80;4.00;;;;;;;9.52;76.05;100027.66;5422000;32;33906;-88
2023/04/26 06:16:01;;;;;;;8.02;3.80;;;;;;;9.70;75.56;100033.56;5411500;32;34186;-87
2023/04/26 06:19:04;;;;;;;8.45;4.55;;;;;;;9.75;74.38;100035.72;5421595;32;33673;-87
2023/04/26 06:22:07;;;;;;;6.25;4.22;;;;;;;9.89;72.44;100032.22;5413564;32;33948;-87
2023/04/26 06:25:10;;;;;;;9.90;4.00;;;;;;;9.86;71.90;100039.81;5409933;32;33975;-87
2023/04/26 06:28:13;;;;;;;7.47;4.10;;;;;;;10.06;69.47;100041.00;5422310;32;34323;-87
2023/04/26 06:31:18;;;;;;;7.28;3.92;;;;;;;10.17;69.16;100039.69;5431223;32;34058;-88
2023/04/26 06:34:21;;;;;;;4.90;3.53;;;;;;;10.00;68.37;100041.69;5426608;32;35306;-87
2023/04/26 06:37:24;;;;;;;4.18;3.42;;;;;;;10.29;69.32;100040.09;5409613;32;33946;-87
2023/04/26 06:40:27;;;;;;;9.63;4.25;;;;;;;10.39;67.41;100035.28;5447336;27;34464;-88
2023/04/26 06:43:30;;;;;;;7.50;3.40;;;;;;;10.39;65.82;100040.69;5430877;27;33701;-86
2023/04/26 06:46:34;;;;;;;11.07;3.83;;;;;;;10.39;66.34;100038.81;5447203;27;34272;-86
2023/04/26 06:49:37;;;;;;;3.70;3.33;;;;;;;10.57;66.42;100030.37;5424031;32;33911;-86
2023/04/26 06:52:39;;;;;;;9.82;3.62;;;;;;;10.85;63.96;100043.16;5402639;32;33828;-86
2023/04/26 06:55:43;;;;;;;5.65;3.00;;;;;;;11.04;62.36;100034.47;5401046;32;34489;-86
2023/04/26 06:58:59;;;;;;;9.77;3.33;;;;;;;11.11;59.80;100040.81;5420807;32;33946;-86
2023/04/26 07:02:02;;;;;;;5.22;2.90;;;;;;;10.91;61.29;100034.34;5410113;32;33506;-86
2023/04/26 07:05:06;;;;;;;4.32;2.92;;;;;;;11.18;60.47;100042.72;5479583;27;34604;-87
2023/04/26 07:08:10;;;;;;;9.40;2.67;;;;;;;11.45;59.04;100041.16;5407996;32;35499;-89
2023/04/26 07:11:13;;;;;;;6.25;2.87;;;;;;;11.62;52.71;100045.25;5420243;32;35326;-89
2023/04/26 07:14:17;;;;;;;8.27;2.72;;;;;;;11.58;49.90;100050.22;5419313;32;33679;-87
2023/04/26 07:17:21;;;;;;;3.37;2.40;;;;;;;11.64;50.23;100056.69;5417984;32;34746;-87
2023/04/26 07:20:24;;;;;;;6.32;2.80;;;;;;;11.59;49.19;100053.75;5416019;32;33765;-86
2023/04/26 07:23:28;;;;;;;5.57;2.60;;;;;;;11.50;50.30;100050.34;5419807;32;33629;-87
2023/04/26 07:26:31;;;;;;;6.40;2.95;;;;;;;11.69;49.65;100056.94;5416727;32;33780;-87
2023/04/26 07:29:34;;;;;;;5.22;2.83;;;;;;;11.69;49.11;100050.72;5413416;32;33936;-86
2023/04/26 07:32:37;;;;;;;3.87;2.70;;;;;;;11.54;48.68;100062.38;5416816;32;33479;-86
2023/04/26 07:35:42;;;;;;;5.03;2.50;;;;;;;11.67;48.25;100060.84;5415708;32;33548;-86
2023/04/26 07:38:45;;;;;;;7.25;2.85;;;;;;;11.85;47.09;100063.97;5416133;32;33864;-86
2023/04/26 07:41:48;;;;;;;4.30;2.58;;;;;;;12.01;45.48;100079.03;5388995;32;33784;-86
2023/04/26 07:44:51;;;;;;;5.05;2.58;;;;;;;12.18;46.27;100075.03;5415012;32;34623;-86
2023/04/26 07:47:54;;;;;;;5.50;2.40;;;;;;;12.45;45.06;100075.22;5402897;32;33712;-86
2023/04/26 07:51:06;;;;;;;4.85;2.45;;;;;;;12.34;44.41;100087.38;5406457;32;33739;-86
2023/04/26 07:54:09;;;;;;;5.45;2.60;;;;;;;12.58;44.67;100088.81;5427271;32;33835;-86
2023/04/26 07:57:12;;;;;;;6.25;2.70;;;;;;;12.20;45.06;100085.66;5430252;32;33665;-86
2023/04/26 08:00:16;;;;;;;7.20;2.35;;;;;;;12.35;43.65;100096.34;5466610;27;33508;-86
2023/04/26 08:03:19;;;;;;;4.35;2.78;;;;;;;12.64;45.13;100089.91;5436505;32;33579;-87
2023/04/26 08:06:22;;;;;;;8.00;3.08;;;;;;;12.56;47.18;100090.88;5412213;32;33549;-86
2023/04/26 08:09:26;;;;;;;3.35;2.20;;;;;;;13.06;46.29;100105.06;5438229;32;33987;-86
2023/04/26 08:12:29;;;;;;;5.65;2.50;;;;;;;12.58;43.39;100104.19;5415519;32;33328;-87
2023/04/26 08:15:32;;;;;;;5.28;2.33;;;;;;;12.71;44.99;100096.16;5406866;32;33365;-86
2023/04/26 08:18:35;;;;;;;6.93;2.60;;;;;;;12.82;43.27;100102.88;5430683;32;34075;-86
2023/04/26 08:21:38;;;;;;;4.00;2.47;;;;;;;13.03;43.07;100110.88;5393876;32;33823;-86
2023/04/26 08:24:41;;;;;;;4.75;2.60;;;;;;;12.92;44.60;100111.44;5428534;32;33472;-86
2023/04/26 08:27:44;;;;;;;4.07;2.50;;;;;;;13.07;43.67;100112.13;5414020;32;35233;-86
2023/04/26 08:30:47;;;;;;;4.82;2.47;;;;;;;12.86;42.94;100129.28;5408539;27;33886;-89
2023/04/26 08:33:50;;;;;;;2.47;2.00;;;;;;;12.78;42.59;100120.50;5412966;32;33922;-86
2023/04/26 08:36:53;;;;;;;6.45;2.22;;;;;;;12.81;44.15;100117.41;5410281;32;33972;-86
2023/04/26 08:39:56;;;;;;;6.65;2.53;;;;;;;12.84;43.13;100131.38;5399665;32;33674;-86
2023/04/26 08:42:59;;;;;;;3.53;2.45;;;;;;;12.66;42.96;100122.94;5399619;32;34819;-86
2023/04/26 08:46:07;;;;;;;3.75;2.70;;;;;;;12.97;43.00;100127.06;5400910;32;34091;-86
2023/04/26 08:49:28;;;;;;;5.72;2.45;;;;;;;13.32;42.67;100126.03;5419842;32;34394;-86
2023/04/26 08:52:31;;;;;;;5.90;2.42;;;;;;;13.03;41.59;100132.50;5399260;32;33503;-86
2023/04/26 08:55:36;;;;;;;3.55;2.53;;;;;;;13.28;41.93;100140.12;5437051;27;33809;-86
2023/04/26 08:58:39;;;;;;;5.55;2.87;;;;;;;12.91;42.86;100148.44;5436139;32;33920;-87
2023/04/26 09:01:43;;;;;;;3.17;2.28;;;;;;;12.91;42.17;100136.81;5438833;32;34180;-86
2023/04/26 09:04:47;;;;;;;6.93;2.30;;;;;;;13.04;41.26;100128.75;5423669;32;34150;-86
2023/04/26 09:07:52;;;;;;;2.85;2.22;;;;;;;13.05;42.38;100135.84;5435674;32;34871;-86
2023/04/26 09:10:56;;;;;;;4.30;2.33;;;;;;;13.23;41.28;100132.59;5435563;32;34881;-86
2023/04/26 09:13:58;;;;;;;12.23;2.72;;;;;;;13.34;41.16;100129.38;5410107;32;33757;-87
2023/04/26 09:17:05;;;;;;;5.43;2.70;;;;;;;13.59;41.14;100136.94;5422657;32;34465;-86
2023/04/26 09:20:17;;;;;;;3.35;2.00;;;;;;;13.66;39.25;100135.09;5401888;32;34498;-86
2023/04/26 09:23:20;;;;;;;8.93;2.80;;;;;;;13.80;40.10;100117.81;5417673;32;33810;-86
2023/04/26 09:26:23;;;;;;;3.25;2.22;;;;;;;14.01;38.15;100122.25;5404602;32;34625;-86
2023/04/26 09:29:26;;;;;;;5.80;2.40;;;;;;;13.93;39.18;100124.31;5395717;32;34961;-86
2023/04/26 09:32:50;;;;;;;5.80;2.47;;;;;;;14.04;38.32;100129.13;5401271;32;33975;-86
2023/04/26 09:35:53;;;;;;;4.43;2.15;;;;;;;13.94;38.72;100126.81;5420599;32;35314;-86
2023/04/26 09:38:57;;;;;;;4.68;2.65;;;;;;;13.87;39.11;100117.84;5416130;32;33734;-86
2023/04/26 09:42:00;;;;;;;8.95;2.10;;;;;;;13.96;38.72;100130.16;5402838;32;33992;-86
2023/04/26 09:45:07;;;;;;;4.12;2.30;;;;;;;13.93;37.88;100135.97;5402711;32;35008;-86
2023/04/26 09:48:21;;;;;;;3.67;2.62;;;;;;;14.13;39.36;100124.31;5391006;32;33652;-86
2023/04/26 09:51:25;;;;;;;3.87;2.70;;;;;;;14.21;37.74;100124.94;5423589;32;33965;-86
2023/04/26 09:54:50;;;;;;;4.90;2.53;;;;;;;14.28;37.25;100116.84;5409881;32;33844;-86
2023/04/26 09:57:54;;;;;;;2.62;2.00;;;;;;;14.21;37.12;100124.13;5415821;32;156361;-86
2023/04/26 10:00:58;;;;;;;3.20;2.20;;;;;;;13.46;39.23;100126.91;5419266;32;34446;-86
2023/04/26 10:04:01;;;;;;;3.65;2.15;;;;;;;14.27;40.28;100118.72;5426379;32;33938;-86
2023/04/26 10:07:04;;;;;;;6.75;2.08;;;;;;;13.97;38.85;100131.81;5434009;32;33677;-86
2023/04/26 10:10:08;;;;;;;5.28;2.20;;;;;;;14.16;36.88;100116.62;5418646;32;33535;-86
2023/04/26 10:13:12;;;;;;;6.95;2.00;;;;;;;14.53;36.84;100114.34;5420683;32;34822;-86
2023/04/26 10:16:15;;;;;;;4.53;2.30;;;;;;;14.88;36.68;100125.75;5436406;32;33335;-86
2023/04/26 10:19:20;;;;;;;4.65;1.90;;;;;;;14.68;37.18;100123.09;5442236;32;33889;-86
2023/04/26 10:22:27;;;;;;;3.97;2.03;;;;;;;15.11;35.04;100103.56;5408626;32;34735;-90
2023/04/26 10:25:38;;;;;;;6.45;1.75;;;;;;;14.95;35.89;100129.28;5433995;32;33955;-90
2023/04/26 10:28:45;;;;;;;2.92;1.75;;;;;;;14.64;34.90;100124.56;5434127;32;33766;-86
2023/04/26 10:32:00;;;;;;;4.68;2.40;;;;;;;14.48;36.84;100125.81;5433320;32;34499;-86
2023/04/26 10:35:12;;;;;;;6.32;1.70;;;;;;;14.88;35.61;100120.31;5434995;32;33818;-86
2023/04/26 10:38:15;;;;;;;4.18;1.85;;;;;;;15.38;34.40;100120.56;5449147;32;36525;-87
2023/04/26 10:41:30;;;;;;;5.97;2.05;;;;;;;15.81;33.31;100124.56;5419540;32;34129;-86
2023/04/26 10:44:36;;;;;;;2.45;1.77;;;;;;;15.39;32.93;100127.69;5424069;32;34524;-86
2023/04/26 10:47:39;;;;;;;3.85;1.60;;;;;;;15.48;34.70;100128.25;5429428;32;33889;-86
2023/04/26 10:51:12;;;;;;;3.72;1.70;;;;;;;15.61;31.91;100121.94;5378024;32;33393;-86
2023/04/26 10:54:15;;;;;;;2.78;1.45;;;;;;;15.50;31.42;100125.31;5427679;32;33710;-86
2023/04/26 10:57:17;;;;;;;2.60;1.77;;;;;;;16.17;30.87;100118.44;5452088;32;33774;-86
2023/04/26 11:00:28;;;;;;;4.68;1.60;;;;;;;17.18;32.59;100119.19;5439669;32;34608;-86
2023/04/26 11:03:34;;;;;;;2.37;1.70;;;;;;;17.39;30.30;100117.88;5413389;32;33815;-86
2023/04/26 11:06:48;;;;;;;1.73;1.60;;;;;;;17.62;31.80;100115.25;5441181;32;34099;-86
2023/04/26 11:09:51;;;;;;;3.70;1.75;;;;;;;16.87;30.63;100122.88;5450610;32;35237;-87
2023/04/26 11:13:02;;;;;;;2.67;1.80;;;;;;;15.53;33.20;100109.47;5435561;32;33424;-86
2023/04/26 11:16:07;;;;;;;2.50;1.33;;;;;;;15.49;33.07;100121.78;5422317;32;34351;-86
2023/04/26 11:19:10;;;;;;;3.62;1.87;;;;;;;16.43;31.67;100111.13;5430244;32;33877;-90
2023/04/26 11:22:13;;;;;;;4.53;1.65;;;;;;;17.84;29.06;100103.88;5422981;32;35361;-90
2023/04/26 11:25:17;;;;;;;1.92;1.40;;;;;;;17.95;29.55;100108.53;5422466;32;33618;-90
2023/04/26 11:28:22;;;;;;;4.25;2.00;;;;;;;16.99;29.38;100121.06;5422555;32;33944;-88
2023/04/26 11:31:25;;;;;;;1.87;1.65;;;;;;;16.32;32.10;100113.53;5426452;32;34519;-86
2023/04/26 11:34:35;;;;;;;4.05;2.12;;;;;;;15.99;33.79;100121.94;5435938;32;33393;-87
2023/04/26 11:37:38;;;;;;;3.03;1.80;;;;;;;15.16;34.00;100133.59;5435221;32;33537;-87
2023/04/26 11:40:42;;;;;;;4.68;1.95;;;;;;;14.81;33.96;100133.06;5409813;32;33729;-86
2023/04/26 11:43:45;;;;;;;3.92;2.03;;;;;;;14.65;34.18;100128.91;5435686;32;33372;-87
2023/04/26 11:46:49;;;;;;;5.28;2.03;;;;;;;15.26;35.00;100135.03;5409322;32;33849;-87
2023/04/26 11:49:52;;;;;;;3.90;1.80;;;;;;;16.06;32.19;100127.34;5409815;32;33271;-86
2023/04/26 11:52:56;;;;;;;4.18;1.80;;;;;;;16.75;31.77;100136.34;5435234;32;33354;-87
2023/04/26 11:55:59;;;;;;;2.70;1.90;;;;;;;16.54;31.90;100119.41;5425280;32;33727;-86
2023/04/26 11:59:02;;;;;;;3.17;1.70;;;;;;;16.41;32.13;100126.81;5434289;32;33316;-86
2023/04/26 12:02:11;;;;;;;2.72;1.90;;;;;;;17.03;31.35;100130.44;5443686;32;33520;-86
2023/04/26 12:05:26;;;;;;;4.18;1.95;;;;;;;17.09;31.36;100134.97;5442393;32;34593;-86
2023/04/26 12:08:32;;;;;;;2.45;1.90;;;;;;;15.69;32.51;100129.84;5415387;32;34157;-87
2023/04/26 12:11:35;;;;;;;5.45;1.70;;;;;;;15.44;33.26;100137.88;5430731;32;33678;-87
2023/04/26 12:14:39;;;;;;;2.40;1.73;;;;;;;15.47;34.52;100132.00;5417596;32;35201;-87
2023/04/26 12:18:09;;;;;;;3.28;2.37;;;;;;;16.40;31.31;100128.72;5425187;32;33784;-86
2023/04/26 12:21:12;;;;;;;4.43;1.85;;;;;;;16.82;29.73;100126.28;5432644;32;33820;-86
2023/04/26 12:24:36;;;;;;;2.20;1.40;;;;;;;15.85;31.21;100128.50;5421545;32;33680;-86
2023/04/26 12:27:40;;;;;;;4.78;1.50;;;;;;;15.27;32.74;100139.41;5434971;32;33501;-86
2023/04/26 12:30:43;;;;;;;2.10;1.58;;;;;;;14.75;33.79;100139.34;5409204;32;33372;-86
2023/04/26 12:33:45;;;;;;;3.97;1.45;;;;;;;14.30;33.87;100131.00;5420626;32;33293;-86
2023/04/26 12:36:48;;;;;;;1.95;1.40;;;;;;;14.40;33.41;100136.84;5406612;32;34500;-86
2023/04/26 12:39:51;;;;;;;2.97;1.70;;;;;;;14.70;33.45;100129.13;5434730;32;34032;-90
2023/04/26 12:42:55;;;;;;;2.00;1.55;;;;;;;15.84;32.12;100148.56;5409546;32;33470;-90
2023/04/26 12:45:58;;;;;;;1.77;1.40;;;;;;;19.33;26.65;100130.84;5443277;32;33683;-91
2023/04/26 12:49:02;;;;;;;3.28;1.52;;;;;;;18.62;25.88;100135.53;5416808;32;34218;-91
2023/04/26 12:52:06;;;;;;;4.85;1.65;;;;;;;17.13;27.35;100129.91;5417968;32;34134;-88
2023/04/26 12:55:11;;;;;;;3.60;1.50;;;;;;;16.13;30.82;100136.25;5439695;32;34320;-87
2023/04/26 12:58:17;;;;;;;3.08;2.05;;;;;;;16.30;31.66;100137.38;5435568;32;33522;-87
2023/04/26 13:01:20;;;;;;;3.08;1.60;;;;;;;15.85;32.21;100142.94;5417404;32;35182;-87
2023/04/26 13:04:31;;;;;;;2.72;1.60;;;;;;;16.62;31.28;100150.06;5430698;32;34505;-87
2023/04/26 13:07:42;;;;;;;2.12;1.60;;;;;;;18.31;28.65;100140.25;5432495;32;33717;-87
2023/04/26 13:10:45;;;;;;;4.95;1.67;;;;;;;20.14;27.18;100130.75;5445122;32;33414;-88
2023/04/26 13:13:49;;;;;;;1.83;1.37;;;;;;;18.54;27.81;100146.78;5439810;32;35312;-87
2023/04/26 13:16:52;;;;;;;3.62;1.37;;;;;;;16.56;29.62;100159.94;5428362;32;34107;-88
2023/04/26 13:19:55;;;;;;;2.20;1.73;;;;;;;16.03;30.21;100147.59;5434915;32;33718;-88
2023/04/26 13:22:58;;;;;;;2.78;1.55;;;;;;;16.42;29.35;100161.94;5433960;32;33728;-87
2023/04/26 13:26:01;;;;;;;1.67;1.12;;;;;;;17.62;28.76;100156.09;5408411;32;33332;-87
2023/04/26 13:29:03;;;;;;;2.85;1.30;;;;;;;20.81;24.99;100149.91;5420852;32;33415;-88
2023/04/26 13:32:07;;;;;;;2.17;1.42;;;;;;;21.94;23.39;100154.94;5420605;32;33663;-87
2023/04/26 13:35:11;;;;;;;4.68;1.40;;;;;;;22.82;22.17;100157.34;5420419;32;34409;-88
2023/04/26 13:38:14;;;;;;;4.35;1.73;;;;;;;23.08;22.05;100146.56;5407285;32;33436;-88
2023/04/26 13:41:18;;;;;;;2.30;1.20;;;;;;;23.86;20.80;100151.25;5432332;32;34338;-87
2023/04/26 13:44:21;;;;;;;3.22;1.65;;;;;;;25.08;19.57;100155.97;5432736;32;33398;-88
2023/04/26 13:47:24;;;;;;;2.37;1.40;;;;;;;23.23;22.07;100154.88;5418525;32;33517;-88
2023/04/26 13:50:27;;;;;;;3.30;1.48;;;;;;;20.09;24.64;100167.00;5420019;32;34380;-87
2023/04/26 13:53:30;;;;;;;2.33;1.30;;;;;;;18.33;27.38;100168.06;5407938;32;34454;-87
2023/04/26 13:56:33;;;;;;;5.72;1.70;;;;;;;16.87;29.69;100179.97;5420338;32;33842;-87
2023/04/26 13:59:36;;;;;;;4.43;2.00;;;;;;;15.69;32.47;100186.03;5420133;32;33501;-88
2023/04/26 14:02:39;;;;;;;3.90;1.70;;;;;;;15.09;33.25;100188.88;5419246;32;34526;-88
2023/04/26 14:05:42;;;;;;;2.03;1.45;;;;;;;14.68;32.55;100190.00;5438306;32;33679;-87
2023/04/26 14:08:45;;;;;;;2.55;1.77;;;;;;;15.05;32.02;100191.19;5438405;32;32833;-88
2023/04/26 14:11:48;;;;;;;5.93;1.85;;;;;;;15.92;30.75;100194.47;5433959;32;33551;-88
2023/04/26 14:15:09;;;;;;;2.78;1.55;;;;;;;16.39;30.67;100180.56;5422813;32;33475;-88
2023/04/26 14:18:12;;;;;;;3.80;1.42;;;;;;;16.68;30.59;100179.09;5419910;32;33850;-88
2023/04/26 14:21:16;;;;;;;6.50;1.95;;;;;;;15.95;31.00;100188.59;5407423;32;33515;-88
2023/04/26 14:24:19;;;;;;;2.28;1.37;;;;;;;15.29;33.58;100192.38;5433715;32;33808;-88
2023/04/26 14:27:22;;;;;;;3.10;1.33;;;;;;;14.77;34.09;100190.59;5420187;32;33729;-88
2023/04/26 14:30:26;;;;;;;2.28;1.75;;;;;;;14.07;34.71;100194.50;5436931;32;33389;-88
2023/04/26 14:33:28;;;;;;;6.30;1.65;;;;;;;13.83;34.05;100195.91;5409500;32;33909;-92
2023/04/26 14:36:32;;;;;;;2.33;1.70;;;;;;;14.17;34.75;100190.56;5410747;32;34346;-92